sensor_id;sensor_type;location;lat;lon;timestamp;temperature;humidity
46336;DHT22;31365;48.858;8.530;2024-02-21T00:01:17;8.40;99.90
46336;DHT22;31365;48.858;8.530;2024-02-21T00:03:48;8.40;99.90
46336;DHT22;31365;48.858;8.530;2024-02-21T00:06:17;8.40;99.90
46336;DHT22;31365;48.858;8.530;2024-02-21T00:08:45;8.40;99.90
46336;DHT22;31365;48.858;8.530;2024-02-21T00:11:14;8.40;99.90
46336;DHT22;31365;48.858;8.530;2024-02-21T00:13:42;8.40;99.90
46336;DHT22;31365;48.858;8.530;2024-02-21T00:16:11;8.40;99.90
46336;DHT22;31365;48.858;8.530;2024-02-21T00:18:43;8.40;99.90
46336;DHT22;31365;48.858;8.530;2024-02-21T00:21:12;8.40;99.90
46336;DHT22;31365;48.858;8.530;2024-02-21T00:23:45;8.40;99.90
46336;DHT22;31365;48.858;8.530;2024-02-21T00:26:14;8.50;99.90
46336;DHT22;31365;48.858;8.530;2024-02-21T00:28:43;8.40;99.90
46336;DHT22;31365;48.858;8.530;2024-02-21T00:31:11;8.40;99.90
46336;DHT22;31365;48.858;8.530;2024-02-21T00:33:39;8.40;99.90
46336;DHT22;31365;48.858;8.530;2024-02-21T00:36:08;8.40;99.90
46336;DHT22;31365;48.858;8.530;2024-02-21T00:38:38;8.40;99.90
46336;DHT22;31365;48.858;8.530;2024-02-21T00:41:06;8.40;99.90
46336;DHT22;31365;48.858;8.530;2024-02-21T00:43:35;8.40;99.90
46336;DHT22;31365;48.858;8.530;2024-02-21T00:46:05;8.40;99.90
46336;DHT22;31365;48.858;8.530;2024-02-21T00:48:34;8.50;99.90
46336;DHT22;31365;48.858;8.530;2024-02-21T00:51:04;8.50;99.90
46336;DHT22;31365;48.858;8.530;2024-02-21T00:53:32;8.40;99.90
46336;DHT22;31365;48.858;8.530;2024-02-21T00:56:02;8.40;99.90
46336;DHT22;31365;48.858;8.530;2024-02-21T00:58:31;8.40;99.90
46336;DHT22;31365;48.858;8.530;2024-02-21T01:01:00;8.40;99.90
46336;DHT22;31365;48.858;8.530;2024-02-21T01:03:28;8.40;99.90
46336;DHT22;31365;48.858;8.530;2024-02-21T01:05:57;8.40;99.90
46336;DHT22;31365;48.858;8.530;2024-02-21T01:08:25;8.50;99.90
46336;DHT22;31365;48.858;8.530;2024-02-21T01:10:54;8.50;99.90
46336;DHT22;31365;48.858;8.530;2024-02-21T01:13:24;8.50;99.90
46336;DHT22;31365;48.858;8.530;2024-02-21T01:15:52;8.50;99.90
46336;DHT22;31365;48.858;8.530;2024-02-21T01:18:21;8.50;99.90
46336;DHT22;31365;48.858;8.530;2024-02-21T01:20:49;8.50;99.90
46336;DHT22;31365;48.858;8.530;2024-02-21T01:23:18;8.50;99.90
46336;DHT22;31365;48.858;8.530;2024-02-21T01:25:46;8.50;99.90
46336;DHT22;31365;48.858;8.530;2024-02-21T01:28:15;8.50;99.90
46336;DHT22;31365;48.858;8.530;2024-02-21T01:30:45;8.50;99.90
46336;DHT22;31365;48.858;8.530;2024-02-21T01:33:13;8.60;99.90
46336;DHT22;31365;48.858;8.530;2024-02-21T01:35:41;8.60;99.90
46336;DHT22;31365;48.858;8.530;2024-02-21T01:38:10;8.60;99.90
46336;DHT22;31365;48.858;8.530;2024-02-21T01:40:39;8.50;99.90
46336;DHT22;31365;48.858;8.530;2024-02-21T01:43:15;8.50;99.90
46336;DHT22;31365;48.858;8.530;2024-02-21T01:45:49;8.50;99.90
46336;DHT22;31365;48.858;8.530;2024-02-21T01:48:19;8.50;99.90
46336;DHT22;31365;48.858;8.530;2024-02-21T01:50:50;8.40;99.90
46336;DHT22;31365;48.858;8.530;2024-02-21T01:53:23;8.40;99.90
46336;DHT22;31365;48.858;8.530;2024-02-21T01:55:55;8.40;99.90
46336;DHT22;31365;48.858;8.530;2024-02-21T01:58:24;8.40;99.90
46336;DHT22;31365;48.858;8.530;2024-02-21T02:00:56;8.30;99.90
46336;DHT22;31365;48.858;8.530;2024-02-21T02:03:25;8.30;99.90
46336;DHT22;31365;48.858;8.530;2024-02-21T02:05:54;8.30;99.90
46336;DHT22;31365;48.858;8.530;2024-02-21T02:08:22;8.30;99.90
46336;DHT22;31365;48.858;8.530;2024-02-21T02:10:52;8.30;99.90
46336;DHT22;31365;48.858;8.530;2024-02-21T02:13:21;8.30;99.90
46336;DHT22;31365;48.858;8.530;2024-02-21T02:15:49;8.20;99.90
46336;DHT22;31365;48.858;8.530;2024-02-21T02:18:20;8.20;99.90
46336;DHT22;31365;48.858;8.530;2024-02-21T02:20:49;8.20;99.90
46336;DHT22;31365;48.858;8.530;2024-02-21T02:23:25;8.20;99.90
46336;DHT22;31365;48.858;8.530;2024-02-21T02:25:53;8.20;99.90
46336;DHT22;31365;48.858;8.530;2024-02-21T02:28:23;8.20;99.90
46336;DHT22;31365;48.858;8.530;2024-02-21T02:30:52;8.20;99.90
46336;DHT22;31365;48.858;8.530;2024-02-21T02:33:21;8.20;99.90
46336;DHT22;31365;48.858;8.530;2024-02-21T02:35:50;8.20;99.90
46336;DHT22;31365;48.858;8.530;2024-02-21T02:38:18;8.20;99.90
46336;DHT22;31365;48.858;8.530;2024-02-21T02:40:48;8.20;99.90
46336;DHT22;31365;48.858;8.530;2024-02-21T02:43:17;8.20;99.90
46336;DHT22;31365;48.858;8.530;2024-02-21T02:45:46;8.10;99.90
46336;DHT22;31365;48.858;8.530;2024-02-21T02:48:14;8.10;99.90
46336;DHT22;31365;48.858;8.530;2024-02-21T02:50:43;8.10;99.90
46336;DHT22;31365;48.858;8.530;2024-02-21T02:53:12;8.10;99.90
46336;DHT22;31365;48.858;8.530;2024-02-21T02:55:41;8.10;99.90
46336;DHT22;31365;48.858;8.530;2024-02-21T02:58:12;8.10;99.90
46336;DHT22;31365;48.858;8.530;2024-02-21T03:00:40;8.10;99.90
46336;DHT22;31365;48.858;8.530;2024-02-21T03:03:09;8.00;99.90
46336;DHT22;31365;48.858;8.530;2024-02-21T03:05:37;8.00;99.90
46336;DHT22;31365;48.858;8.530;2024-02-21T03:08:06;8.00;99.90
46336;DHT22;31365;48.858;8.530;2024-02-21T03:10:35;8.00;99.90
46336;DHT22;31365;48.858;8.530;2024-02-21T03:13:04;7.90;99.90
46336;DHT22;31365;48.858;8.530;2024-02-21T03:15:34;7.90;99.90
46336;DHT22;31365;48.858;8.530;2024-02-21T03:18:02;7.90;99.90
46336;DHT22;31365;48.858;8.530;2024-02-21T03:20:31;7.80;99.90
46336;DHT22;31365;48.858;8.530;2024-02-21T03:23:00;7.70;99.90
46336;DHT22;31365;48.858;8.530;2024-02-21T03:25:28;7.70;99.90
46336;DHT22;31365;48.858;8.530;2024-02-21T03:27:57;7.60;99.90
46336;DHT22;31365;48.858;8.530;2024-02-21T03:30:25;7.60;99.90
46336;DHT22;31365;48.858;8.530;2024-02-21T03:32:55;7.60;99.90
46336;DHT22;31365;48.858;8.530;2024-02-21T03:35:23;7.50;99.90
46336;DHT22;31365;48.858;8.530;2024-02-21T03:37:54;7.50;99.90
46336;DHT22;31365;48.858;8.530;2024-02-21T03:40:22;7.40;99.90
46336;DHT22;31365;48.858;8.530;2024-02-21T03:42:50;7.40;99.90
46336;DHT22;31365;48.858;8.530;2024-02-21T03:45:19;7.40;99.90
46336;DHT22;31365;48.858;8.530;2024-02-21T03:47:47;7.40;99.90
46336;DHT22;31365;48.858;8.530;2024-02-21T03:50:17;7.40;99.90
46336;DHT22;31365;48.858;8.530;2024-02-21T03:52:46;7.30;99.90
46336;DHT22;31365;48.858;8.530;2024-02-21T03:55:15;7.30;99.90
46336;DHT22;31365;48.858;8.530;2024-02-21T03:57:45;7.30;99.90
46336;DHT22;31365;48.858;8.530;2024-02-21T04:00:28;7.30;99.90
46336;DHT22;31365;48.858;8.530;2024-02-21T04:02:57;7.20;99.90
46336;DHT22;31365;48.858;8.530;2024-02-21T04:05:26;7.10;99.90
46336;DHT22;31365;48.858;8.530;2024-02-21T04:07:55;7.00;99.90
46336;DHT22;31365;48.858;8.530;2024-02-21T04:10:24;7.00;99.90
46336;DHT22;31365;48.858;8.530;2024-02-21T04:12:53;6.90;99.90
46336;DHT22;31365;48.858;8.530;2024-02-21T04:15:21;6.90;99.90
46336;DHT22;31365;48.858;8.530;2024-02-21T04:17:49;6.80;99.90
46336;DHT22;31365;48.858;8.530;2024-02-21T04:20:19;6.80;99.90
46336;DHT22;31365;48.858;8.530;2024-02-21T04:22:49;6.70;99.90
46336;DHT22;31365;48.858;8.530;2024-02-21T04:25:17;6.70;99.90
46336;DHT22;31365;48.858;8.530;2024-02-21T04:27:46;6.70;99.90
46336;DHT22;31365;48.858;8.530;2024-02-21T04:30:15;6.60;99.90
46336;DHT22;31365;48.858;8.530;2024-02-21T04:32:43;6.50;99.90
46336;DHT22;31365;48.858;8.530;2024-02-21T04:35:12;6.50;99.90
46336;DHT22;31365;48.858;8.530;2024-02-21T04:37:41;6.40;99.90
46336;DHT22;31365;48.858;8.530;2024-02-21T04:40:12;6.30;99.90
46336;DHT22;31365;48.858;8.530;2024-02-21T04:42:41;6.30;99.90
46336;DHT22;31365;48.858;8.530;2024-02-21T04:45:10;6.30;99.90
46336;DHT22;31365;48.858;8.530;2024-02-21T04:47:38;6.20;99.90
46336;DHT22;31365;48.858;8.530;2024-02-21T04:50:07;6.20;99.90
46336;DHT22;31365;48.858;8.530;2024-02-21T04:52:37;6.20;99.90
46336;DHT22;31365;48.858;8.530;2024-02-21T04:55:06;6.20;99.90
46336;DHT22;31365;48.858;8.530;2024-02-21T04:57:36;6.10;99.90
46336;DHT22;31365;48.858;8.530;2024-02-21T05:00:06;6.00;99.90
46336;DHT22;31365;48.858;8.530;2024-02-21T05:02:35;6.10;99.90
46336;DHT22;31365;48.858;8.530;2024-02-21T05:05:04;6.10;99.90
46336;DHT22;31365;48.858;8.530;2024-02-21T05:07:35;6.20;99.90
46336;DHT22;31365;48.858;8.530;2024-02-21T05:10:04;6.10;99.90
46336;DHT22;31365;48.858;8.530;2024-02-21T05:12:36;6.10;99.90
46336;DHT22;31365;48.858;8.530;2024-02-21T05:15:06;6.00;99.90
46336;DHT22;31365;48.858;8.530;2024-02-21T05:17:35;6.00;99.90
46336;DHT22;31365;48.858;8.530;2024-02-21T05:20:04;5.90;99.90
46336;DHT22;31365;48.858;8.530;2024-02-21T05:22:33;5.90;99.90
46336;DHT22;31365;48.858;8.530;2024-02-21T05:25:01;5.90;99.90
46336;DHT22;31365;48.858;8.530;2024-02-21T05:27:29;5.80;99.90
46336;DHT22;31365;48.858;8.530;2024-02-21T05:29:59;5.80;99.90
46336;DHT22;31365;48.858;8.530;2024-02-21T05:32:27;5.80;99.90
46336;DHT22;31365;48.858;8.530;2024-02-21T05:34:56;5.80;99.90
46336;DHT22;31365;48.858;8.530;2024-02-21T05:37:25;5.70;99.90
46336;DHT22;31365;48.858;8.530;2024-02-21T05:39:53;5.70;99.90
46336;DHT22;31365;48.858;8.530;2024-02-21T05:42:22;5.70;99.90
46336;DHT22;31365;48.858;8.530;2024-02-21T05:44:50;5.70;99.90
46336;DHT22;31365;48.858;8.530;2024-02-21T05:47:20;5.70;99.90
46336;DHT22;31365;48.858;8.530;2024-02-21T05:49:49;5.70;99.90
46336;DHT22;31365;48.858;8.530;2024-02-21T05:52:20;5.70;99.90
46336;DHT22;31365;48.858;8.530;2024-02-21T05:54:49;5.70;99.90
46336;DHT22;31365;48.858;8.530;2024-02-21T05:57:18;5.60;99.90
46336;DHT22;31365;48.858;8.530;2024-02-21T05:59:46;5.60;99.90
46336;DHT22;31365;48.858;8.530;2024-02-21T06:02:15;5.50;99.90
46336;DHT22;31365;48.858;8.530;2024-02-21T06:04:45;5.50;99.90
46336;DHT22;31365;48.858;8.530;2024-02-21T06:07:14;5.50;99.90
46336;DHT22;31365;48.858;8.530;2024-02-21T06:09:42;5.40;99.90
46336;DHT22;31365;48.858;8.530;2024-02-21T06:12:11;5.40;99.90
46336;DHT22;31365;48.858;8.530;2024-02-21T06:14:40;5.40;99.90
46336;DHT22;31365;48.858;8.530;2024-02-21T06:17:08;5.40;99.90
46336;DHT22;31365;48.858;8.530;2024-02-21T06:19:39;5.40;99.90
46336;DHT22;31365;48.858;8.530;2024-02-21T06:22:10;5.30;99.90
46336;DHT22;31365;48.858;8.530;2024-02-21T06:24:38;5.40;99.90
46336;DHT22;31365;48.858;8.530;2024-02-21T06:27:07;5.40;99.90
46336;DHT22;31365;48.858;8.530;2024-02-21T06:29:37;5.40;99.90
46336;DHT22;31365;48.858;8.530;2024-02-21T06:32:08;5.40;99.90
46336;DHT22;31365;48.858;8.530;2024-02-21T06:34:36;5.50;99.90
46336;DHT22;31365;48.858;8.530;2024-02-21T06:37:05;5.40;99.90
46336;DHT22;31365;48.858;8.530;2024-02-21T06:39:37;5.50;99.90
46336;DHT22;31365;48.858;8.530;2024-02-21T06:42:07;5.50;99.90
46336;DHT22;31365;48.858;8.530;2024-02-21T06:44:36;5.50;99.90
46336;DHT22;31365;48.858;8.530;2024-02-21T06:47:07;5.50;99.90
46336;DHT22;31365;48.858;8.530;2024-02-21T06:49:36;5.50;99.90
46336;DHT22;31365;48.858;8.530;2024-02-21T06:52:05;5.50;99.90
46336;DHT22;31365;48.858;8.530;2024-02-21T06:54:35;5.60;99.90
46336;DHT22;31365;48.858;8.530;2024-02-21T06:57:03;5.60;99.90
46336;DHT22;31365;48.858;8.530;2024-02-21T06:59:32;5.60;99.90
46336;DHT22;31365;48.858;8.530;2024-02-21T07:02:00;5.70;99.90
46336;DHT22;31365;48.858;8.530;2024-02-21T07:04:28;5.70;99.90
46336;DHT22;31365;48.858;8.530;2024-02-21T07:06:57;5.80;99.90
46336;DHT22;31365;48.858;8.530;2024-02-21T07:09:26;5.80;99.90
46336;DHT22;31365;48.858;8.530;2024-02-21T07:11:57;5.90;99.90
46336;DHT22;31365;48.858;8.530;2024-02-21T07:14:25;6.00;99.90
46336;DHT22;31365;48.858;8.530;2024-02-21T07:16:54;6.10;99.90
46336;DHT22;31365;48.858;8.530;2024-02-21T07:19:24;6.20;99.90
46336;DHT22;31365;48.858;8.530;2024-02-21T07:21:53;6.20;99.90
46336;DHT22;31365;48.858;8.530;2024-02-21T07:24:21;6.30;99.90
46336;DHT22;31365;48.858;8.530;2024-02-21T07:26:50;6.40;99.90
46336;DHT22;31365;48.858;8.530;2024-02-21T07:29:20;6.40;99.90
46336;DHT22;31365;48.858;8.530;2024-02-21T07:31:48;6.50;99.90
46336;DHT22;31365;48.858;8.530;2024-02-21T07:34:19;6.40;99.90
46336;DHT22;31365;48.858;8.530;2024-02-21T07:36:48;6.50;99.90
46336;DHT22;31365;48.858;8.530;2024-02-21T07:39:17;6.50;99.90
46336;DHT22;31365;48.858;8.530;2024-02-21T07:41:46;6.50;99.90
46336;DHT22;31365;48.858;8.530;2024-02-21T07:44:16;6.60;99.90
46336;DHT22;31365;48.858;8.530;2024-02-21T07:46:45;6.80;99.90
46336;DHT22;31365;48.858;8.530;2024-02-21T07:49:14;6.90;99.90
46336;DHT22;31365;48.858;8.530;2024-02-21T07:51:42;6.90;99.90
46336;DHT22;31365;48.858;8.530;2024-02-21T07:54:11;7.00;99.90
46336;DHT22;31365;48.858;8.530;2024-02-21T07:56:43;7.00;99.90
46336;DHT22;31365;48.858;8.530;2024-02-21T07:59:11;7.00;99.90
46336;DHT22;31365;48.858;8.530;2024-02-21T08:01:40;7.10;99.90
46336;DHT22;31365;48.858;8.530;2024-02-21T08:04:09;7.10;99.90
46336;DHT22;31365;48.858;8.530;2024-02-21T08:06:38;7.20;99.90
46336;DHT22;31365;48.858;8.530;2024-02-21T08:09:06;7.30;99.90
46336;DHT22;31365;48.858;8.530;2024-02-21T08:11:35;7.40;99.90
46336;DHT22;31365;48.858;8.530;2024-02-21T08:14:04;7.50;99.90
46336;DHT22;31365;48.858;8.530;2024-02-21T08:16:32;7.60;99.90
46336;DHT22;31365;48.858;8.530;2024-02-21T08:19:00;7.70;99.90
46336;DHT22;31365;48.858;8.530;2024-02-21T08:21:31;7.80;99.90
46336;DHT22;31365;48.858;8.530;2024-02-21T08:23:59;8.00;99.90
46336;DHT22;31365;48.858;8.530;2024-02-21T08:26:27;8.10;99.90
46336;DHT22;31365;48.858;8.530;2024-02-21T08:28:58;8.20;99.90
46336;DHT22;31365;48.858;8.530;2024-02-21T08:31:28;8.20;99.90
46336;DHT22;31365;48.858;8.530;2024-02-21T08:33:59;8.30;99.90
46336;DHT22;31365;48.858;8.530;2024-02-21T08:36:31;8.30;99.90
46336;DHT22;31365;48.858;8.530;2024-02-21T08:39:01;8.40;99.90
46336;DHT22;31365;48.858;8.530;2024-02-21T08:41:31;8.40;99.90
46336;DHT22;31365;48.858;8.530;2024-02-21T08:44:22;8.50;99.90
46336;DHT22;31365;48.858;8.530;2024-02-21T08:46:52;8.60;99.90
46336;DHT22;31365;48.858;8.530;2024-02-21T08:49:21;8.70;99.90
46336;DHT22;31365;48.858;8.530;2024-02-21T08:51:53;8.70;99.90
46336;DHT22;31365;48.858;8.530;2024-02-21T08:54:21;8.80;99.90
46336;DHT22;31365;48.858;8.530;2024-02-21T08:56:49;8.90;99.90
46336;DHT22;31365;48.858;8.530;2024-02-21T08:59:18;9.00;99.90
46336;DHT22;31365;48.858;8.530;2024-02-21T09:01:47;9.10;99.90
46336;DHT22;31365;48.858;8.530;2024-02-21T09:04:15;9.20;99.90
46336;DHT22;31365;48.858;8.530;2024-02-21T09:06:44;9.20;99.90
46336;DHT22;31365;48.858;8.530;2024-02-21T09:09:14;9.30;99.90
46336;DHT22;31365;48.858;8.530;2024-02-21T09:11:43;9.40;99.90
46336;DHT22;31365;48.858;8.530;2024-02-21T09:14:12;9.30;99.90
46336;DHT22;31365;48.858;8.530;2024-02-21T09:16:40;9.30;99.90
46336;DHT22;31365;48.858;8.530;2024-02-21T09:19:08;9.40;99.90
46336;DHT22;31365;48.858;8.530;2024-02-21T09:21:38;9.40;99.90
46336;DHT22;31365;48.858;8.530;2024-02-21T09:24:06;9.60;99.90
46336;DHT22;31365;48.858;8.530;2024-02-21T09:26:35;9.70;99.90
46336;DHT22;31365;48.858;8.530;2024-02-21T09:29:04;9.80;99.90
46336;DHT22;31365;48.858;8.530;2024-02-21T09:31:32;10.00;99.90
46336;DHT22;31365;48.858;8.530;2024-02-21T09:34:00;10.10;99.90
46336;DHT22;31365;48.858;8.530;2024-02-21T09:36:29;10.20;99.90
46336;DHT22;31365;48.858;8.530;2024-02-21T09:38:58;10.50;99.90
46336;DHT22;31365;48.858;8.530;2024-02-21T09:41:27;10.60;99.90
46336;DHT22;31365;48.858;8.530;2024-02-21T09:43:57;10.80;99.90
46336;DHT22;31365;48.858;8.530;2024-02-21T09:46:35;10.90;99.90
46336;DHT22;31365;48.858;8.530;2024-02-21T09:49:21;11.10;99.90
46336;DHT22;31365;48.858;8.530;2024-02-21T09:52:00;11.20;99.90
46336;DHT22;31365;48.858;8.530;2024-02-21T09:54:32;11.40;99.90
46336;DHT22;31365;48.858;8.530;2024-02-21T09:57:00;11.60;99.90
46336;DHT22;31365;48.858;8.530;2024-02-21T09:59:32;11.70;99.90
46336;DHT22;31365;48.858;8.530;2024-02-21T10:02:01;11.90;99.90
46336;DHT22;31365;48.858;8.530;2024-02-21T10:04:30;12.00;99.90
46336;DHT22;31365;48.858;8.530;2024-02-21T10:06:59;12.00;99.90
46336;DHT22;31365;48.858;8.530;2024-02-21T10:09:28;12.10;99.90
46336;DHT22;31365;48.858;8.530;2024-02-21T10:12:07;12.30;99.90
46336;DHT22;31365;48.858;8.530;2024-02-21T10:14:39;12.40;99.90
46336;DHT22;31365;48.858;8.530;2024-02-21T10:17:14;12.60;99.90
46336;DHT22;31365;48.858;8.530;2024-02-21T10:19:45;12.70;99.90
46336;DHT22;31365;48.858;8.530;2024-02-21T10:22:15;12.80;99.90
46336;DHT22;31365;48.858;8.530;2024-02-21T10:24:43;12.80;99.90
46336;DHT22;31365;48.858;8.530;2024-02-21T10:27:12;12.90;99.90
46336;DHT22;31365;48.858;8.530;2024-02-21T10:29:42;12.90;99.90
46336;DHT22;31365;48.858;8.530;2024-02-21T10:32:16;12.90;99.90
46336;DHT22;31365;48.858;8.530;2024-02-21T10:34:45;13.10;99.90
46336;DHT22;31365;48.858;8.530;2024-02-21T10:37:21;13.10;99.90
46336;DHT22;31365;48.858;8.530;2024-02-21T10:39:49;13.20;99.90
46336;DHT22;31365;48.858;8.530;2024-02-21T10:42:21;13.10;99.90
46336;DHT22;31365;48.858;8.530;2024-02-21T10:44:52;13.10;99.90
46336;DHT22;31365;48.858;8.530;2024-02-21T10:47:23;13.10;99.90
46336;DHT22;31365;48.858;8.530;2024-02-21T10:50:02;13.10;99.90
46336;DHT22;31365;48.858;8.530;2024-02-21T10:52:44;13.10;99.90
46336;DHT22;31365;48.858;8.530;2024-02-21T10:55:21;13.10;99.90
46336;DHT22;31365;48.858;8.530;2024-02-21T10:57:57;13.20;99.90
46336;DHT22;31365;48.858;8.530;2024-02-21T11:00:29;13.20;99.90
46336;DHT22;31365;48.858;8.530;2024-02-21T11:02:59;13.30;99.90
46336;DHT22;31365;48.858;8.530;2024-02-21T11:05:30;13.30;99.90
46336;DHT22;31365;48.858;8.530;2024-02-21T11:08:00;13.30;99.90
46336;DHT22;31365;48.858;8.530;2024-02-21T11:10:29;13.30;99.90
46336;DHT22;31365;48.858;8.530;2024-02-21T11:13:06;13.50;99.90
46336;DHT22;31365;48.858;8.530;2024-02-21T11:15:37;13.60;99.90
46336;DHT22;31365;48.858;8.530;2024-02-21T11:18:06;13.60;99.90
46336;DHT22;31365;48.858;8.530;2024-02-21T11:20:35;13.60;99.90
46336;DHT22;31365;48.858;8.530;2024-02-21T11:23:05;13.70;99.90
46336;DHT22;31365;48.858;8.530;2024-02-21T11:25:33;13.80;99.90
46336;DHT22;31365;48.858;8.530;2024-02-21T11:28:03;13.90;99.90
46336;DHT22;31365;48.858;8.530;2024-02-21T11:30:37;14.10;99.90
46336;DHT22;31365;48.858;8.530;2024-02-21T11:33:07;14.20;99.90
46336;DHT22;31365;48.858;8.530;2024-02-21T11:35:36;14.40;99.90
46336;DHT22;31365;48.858;8.530;2024-02-21T11:38:09;14.30;99.90
46336;DHT22;31365;48.858;8.530;2024-02-21T11:40:43;14.10;99.90
46336;DHT22;31365;48.858;8.530;2024-02-21T11:43:13;14.10;99.90
46336;DHT22;31365;48.858;8.530;2024-02-21T11:45:44;14.10;99.90
46336;DHT22;31365;48.858;8.530;2024-02-21T11:48:12;14.20;99.90
46336;DHT22;31365;48.858;8.530;2024-02-21T11:50:41;14.20;99.90
46336;DHT22;31365;48.858;8.530;2024-02-21T11:53:10;14.20;99.90
46336;DHT22;31365;48.858;8.530;2024-02-21T11:55:38;14.10;99.90
46336;DHT22;31365;48.858;8.530;2024-02-21T11:58:08;14.00;99.90
46336;DHT22;31365;48.858;8.530;2024-02-21T12:00:36;14.00;99.90
46336;DHT22;31365;48.858;8.530;2024-02-21T12:03:07;14.00;99.90
46336;DHT22;31365;48.858;8.530;2024-02-21T12:05:36;14.10;99.90
46336;DHT22;31365;48.858;8.530;2024-02-21T12:08:05;14.10;99.90
46336;DHT22;31365;48.858;8.530;2024-02-21T12:10:35;14.10;99.90
46336;DHT22;31365;48.858;8.530;2024-02-21T12:13:07;14.20;99.90
46336;DHT22;31365;48.858;8.530;2024-02-21T12:15:36;14.20;99.90
46336;DHT22;31365;48.858;8.530;2024-02-21T12:18:07;14.20;99.90
46336;DHT22;31365;48.858;8.530;2024-02-21T12:20:35;14.20;99.90
46336;DHT22;31365;48.858;8.530;2024-02-21T12:23:08;14.20;99.90
46336;DHT22;31365;48.858;8.530;2024-02-21T12:25:39;14.20;99.90
46336;DHT22;31365;48.858;8.530;2024-02-21T12:28:07;14.20;99.90
46336;DHT22;31365;48.858;8.530;2024-02-21T12:30:36;14.20;99.90
46336;DHT22;31365;48.858;8.530;2024-02-21T12:33:08;14.30;99.90
46336;DHT22;31365;48.858;8.530;2024-02-21T12:35:36;14.40;99.90
46336;DHT22;31365;48.858;8.530;2024-02-21T12:38:05;14.50;99.90
46336;DHT22;31365;48.858;8.530;2024-02-21T12:40:33;14.50;99.90
46336;DHT22;31365;48.858;8.530;2024-02-21T12:43:02;14.50;99.90
46336;DHT22;31365;48.858;8.530;2024-02-21T12:45:31;14.50;99.90
46336;DHT22;31365;48.858;8.530;2024-02-21T12:48:01;14.50;99.90
46336;DHT22;31365;48.858;8.530;2024-02-21T12:50:30;14.40;99.90
46336;DHT22;31365;48.858;8.530;2024-02-21T12:53:00;14.40;99.90
46336;DHT22;31365;48.858;8.530;2024-02-21T12:55:34;14.40;99.90
46336;DHT22;31365;48.858;8.530;2024-02-21T12:58:03;14.50;99.90
46336;DHT22;31365;48.858;8.530;2024-02-21T13:00:33;14.50;99.90
46336;DHT22;31365;48.858;8.530;2024-02-21T13:03:03;14.40;99.90
46336;DHT22;31365;48.858;8.530;2024-02-21T13:05:33;14.40;99.90
46336;DHT22;31365;48.858;8.530;2024-02-21T13:08:02;14.40;99.90
46336;DHT22;31365;48.858;8.530;2024-02-21T13:10:30;14.40;99.90
46336;DHT22;31365;48.858;8.530;2024-02-21T13:13:00;14.40;99.90
46336;DHT22;31365;48.858;8.530;2024-02-21T13:15:29;14.30;99.90
46336;DHT22;31365;48.858;8.530;2024-02-21T13:17:57;14.30;99.90
46336;DHT22;31365;48.858;8.530;2024-02-21T13:20:26;14.30;99.90
46336;DHT22;31365;48.858;8.530;2024-02-21T13:22:57;14.20;99.90
46336;DHT22;31365;48.858;8.530;2024-02-21T13:25:26;14.20;99.90
46336;DHT22;31365;48.858;8.530;2024-02-21T13:27:54;14.10;99.90
46336;DHT22;31365;48.858;8.530;2024-02-21T13:30:23;14.10;99.90
46336;DHT22;31365;48.858;8.530;2024-02-21T13:32:52;14.00;99.90
46336;DHT22;31365;48.858;8.530;2024-02-21T13:35:21;14.00;99.90
46336;DHT22;31365;48.858;8.530;2024-02-21T13:37:49;14.00;99.90
46336;DHT22;31365;48.858;8.530;2024-02-21T13:40:20;14.00;99.90
46336;DHT22;31365;48.858;8.530;2024-02-21T13:42:48;13.90;99.90
46336;DHT22;31365;48.858;8.530;2024-02-21T13:45:17;13.90;99.90
46336;DHT22;31365;48.858;8.530;2024-02-21T13:47:46;13.80;99.90
46336;DHT22;31365;48.858;8.530;2024-02-21T13:50:15;13.70;99.90
46336;DHT22;31365;48.858;8.530;2024-02-21T13:52:44;13.70;99.90
46336;DHT22;31365;48.858;8.530;2024-02-21T13:55:13;13.60;99.90
46336;DHT22;31365;48.858;8.530;2024-02-21T13:57:43;13.50;99.90
46336;DHT22;31365;48.858;8.530;2024-02-21T14:00:12;13.50;99.90
46336;DHT22;31365;48.858;8.530;2024-02-21T14:02:41;13.30;99.90
46336;DHT22;31365;48.858;8.530;2024-02-21T14:05:10;13.30;99.90
46336;DHT22;31365;48.858;8.530;2024-02-21T14:07:39;13.30;99.90
46336;DHT22;31365;48.858;8.530;2024-02-21T14:10:08;13.30;99.90
46336;DHT22;31365;48.858;8.530;2024-02-21T14:12:37;13.20;99.90
46336;DHT22;31365;48.858;8.530;2024-02-21T14:15:09;13.20;99.90
46336;DHT22;31365;48.858;8.530;2024-02-21T14:17:37;13.20;99.90
46336;DHT22;31365;48.858;8.530;2024-02-21T14:20:07;13.10;99.90
46336;DHT22;31365;48.858;8.530;2024-02-21T14:22:38;13.10;99.90
46336;DHT22;31365;48.858;8.530;2024-02-21T14:25:08;13.10;99.90
46336;DHT22;31365;48.858;8.530;2024-02-21T14:27:36;13.10;99.90
46336;DHT22;31365;48.858;8.530;2024-02-21T14:30:06;13.20;99.90
46336;DHT22;31365;48.858;8.530;2024-02-21T14:32:38;13.10;99.90
46336;DHT22;31365;48.858;8.530;2024-02-21T14:35:11;13.20;99.90
46336;DHT22;31365;48.858;8.530;2024-02-21T14:37:39;13.10;99.90
46336;DHT22;31365;48.858;8.530;2024-02-21T14:40:09;13.20;99.90
46336;DHT22;31365;48.858;8.530;2024-02-21T14:42:37;13.20;99.90
46336;DHT22;31365;48.858;8.530;2024-02-21T14:45:09;13.10;99.90
46336;DHT22;31365;48.858;8.530;2024-02-21T14:47:37;13.10;99.90
46336;DHT22;31365;48.858;8.530;2024-02-21T14:50:06;13.10;99.90
46336;DHT22;31365;48.858;8.530;2024-02-21T14:52:35;13.00;99.90
46336;DHT22;31365;48.858;8.530;2024-02-21T14:55:06;13.10;99.90
46336;DHT22;31365;48.858;8.530;2024-02-21T14:57:35;13.10;99.90
46336;DHT22;31365;48.858;8.530;2024-02-21T15:00:09;13.10;99.90
46336;DHT22;31365;48.858;8.530;2024-02-21T15:02:38;13.00;99.90
46336;DHT22;31365;48.858;8.530;2024-02-21T15:05:08;13.00;99.90
46336;DHT22;31365;48.858;8.530;2024-02-21T15:07:37;13.00;99.90
46336;DHT22;31365;48.858;8.530;2024-02-21T15:10:06;13.00;99.90
46336;DHT22;31365;48.858;8.530;2024-02-21T15:12:35;12.90;99.90
46336;DHT22;31365;48.858;8.530;2024-02-21T15:15:04;12.90;99.90
46336;DHT22;31365;48.858;8.530;2024-02-21T15:17:36;12.80;99.90
46336;DHT22;31365;48.858;8.530;2024-02-21T15:20:06;12.80;99.90
46336;DHT22;31365;48.858;8.530;2024-02-21T15:22:35;12.70;99.90
46336;DHT22;31365;48.858;8.530;2024-02-21T15:25:05;12.60;99.90
46336;DHT22;31365;48.858;8.530;2024-02-21T15:27:34;12.50;99.90
46336;DHT22;31365;48.858;8.530;2024-02-21T15:30:08;12.50;99.90
46336;DHT22;31365;48.858;8.530;2024-02-21T15:32:38;12.40;99.90
46336;DHT22;31365;48.858;8.530;2024-02-21T15:35:07;12.40;99.90
46336;DHT22;31365;48.858;8.530;2024-02-21T15:37:36;12.30;99.90
46336;DHT22;31365;48.858;8.530;2024-02-21T15:40:05;12.30;99.90
46336;DHT22;31365;48.858;8.530;2024-02-21T15:42:36;12.20;99.90
46336;DHT22;31365;48.858;8.530;2024-02-21T15:45:05;12.10;99.90
46336;DHT22;31365;48.858;8.530;2024-02-21T15:47:34;12.10;99.90
46336;DHT22;31365;48.858;8.530;2024-02-21T15:50:06;12.10;99.90
46336;DHT22;31365;48.858;8.530;2024-02-21T15:52:37;12.00;99.90
46336;DHT22;31365;48.858;8.530;2024-02-21T15:55:06;11.90;99.90